sensor_id;sensor_type;location;lat;lon;timestamp;pressure;altitude;pressure_sealevel;temperature;humidity
32875;BME280;40468;42.128;24.750;2023-05-10T00:00:33;100157.38;;;10.63;74.42
32875;BME280;40468;42.128;24.750;2023-05-10T00:02:05;100170.03;;;10.73;74.25
32875;BME280;40468;42.128;24.750;2023-05-10T00:03:37;100181.25;;;10.75;74.26
32875;BME280;40468;42.128;24.750;2023-05-10T00:05:08;100181.28;;;10.73;74.13
32875;BME280;40468;42.128;24.750;2023-05-10T00:06:40;100185.66;;;10.73;74.22
32875;BME280;40468;42.128;24.750;2023-05-10T00:08:12;100135.41;;;10.48;74.14
32875;BME280;40468;42.128;24.750;2023-05-10T00:09:45;100172.75;;;10.69;74.10
32875;BME280;40468;42.128;24.750;2023-05-10T00:11:16;100174.44;;;10.70;74.27
32875;BME280;40468;42.128;24.750;2023-05-10T00:12:48;100162.59;;;10.63;74.30
32875;BME280;40468;42.128;24.750;2023-05-10T00:14:19;100171.91;;;10.69;74.34
32875;BME280;40468;42.128;24.750;2023-05-10T00:15:51;100169.34;;;10.67;74.09
32875;BME280;40468;42.128;24.750;2023-05-10T00:17:22;100166.03;;;10.64;74.48
32875;BME280;40468;42.128;24.750;2023-05-10T00:18:54;100126.38;;;10.35;74.76
32875;BME280;40468;42.128;24.750;2023-05-10T00:20:25;100156.06;;;10.53;75.01
32875;BME280;40468;42.128;24.750;2023-05-10T00:21:57;100169.72;;;10.58;75.08
32875;BME280;40468;42.128;24.750;2023-05-10T00:23:29;100168.03;;;10.57;75.35
32875;BME280;40468;42.128;24.750;2023-05-10T00:25:03;100164.53;;;10.58;75.35
32875;BME280;40468;42.128;24.750;2023-05-10T00:26:35;100160.28;;;10.56;75.67
32875;BME280;40468;42.128;24.750;2023-05-10T00:28:07;100156.78;;;10.57;75.54
32875;BME280;40468;42.128;24.750;2023-05-10T00:29:39;100149.84;;;10.56;75.84
32875;BME280;40468;42.128;24.750;2023-05-10T00:31:11;100151.69;;;10.54;75.87
32875;BME280;40468;42.128;24.750;2023-05-10T00:32:43;100155.97;;;10.55;76.27
32875;BME280;40468;42.128;24.750;2023-05-10T00:34:14;100159.56;;;10.52;76.21
32875;BME280;40468;42.128;24.750;2023-05-10T00:35:46;100155.25;;;10.51;76.60
32875;BME280;40468;42.128;24.750;2023-05-10T00:37:16;100152.81;;;10.46;76.42
32875;BME280;40468;42.128;24.750;2023-05-10T00:38:48;100161.38;;;10.50;76.65
32875;BME280;40468;42.128;24.750;2023-05-10T00:40:22;100154.34;;;10.52;76.61
32875;BME280;40468;42.128;24.750;2023-05-10T00:41:53;100142.50;;;10.45;77.18
32875;BME280;40468;42.128;24.750;2023-05-10T00:43:25;100138.28;;;10.41;77.26
32875;BME280;40468;42.128;24.750;2023-05-10T00:44:56;100151.94;;;10.47;77.46
32875;BME280;40468;42.128;24.750;2023-05-10T00:46:29;100158.00;;;10.48;77.58
32875;BME280;40468;42.128;24.750;2023-05-10T00:48:02;100151.88;;;10.49;77.39
32875;BME280;40468;42.128;24.750;2023-05-10T00:49:34;100152.66;;;10.51;77.69
32875;BME280;40468;42.128;24.750;2023-05-10T00:51:07;100149.25;;;10.49;77.63
32875;BME280;40468;42.128;24.750;2023-05-10T00:52:39;100149.13;;;10.52;77.95
32875;BME280;40468;42.128;24.750;2023-05-10T00:54:14;100131.28;;;10.43;77.96
32875;BME280;40468;42.128;24.750;2023-05-10T00:55:47;100153.34;;;10.56;77.72
32875;BME280;40468;42.128;24.750;2023-05-10T00:57:19;100154.22;;;10.55;77.85
32875;BME280;40468;42.128;24.750;2023-05-10T00:58:51;100157.75;;;10.54;77.86
32875;BME280;40468;42.128;24.750;2023-05-10T01:00:23;100149.94;;;10.54;78.02
32875;BME280;40468;42.128;24.750;2023-05-10T01:01:54;100155.16;;;10.54;78.06
32875;BME280;40468;42.128;24.750;2023-05-10T01:03:26;100128.13;;;10.35;78.07
32875;BME280;40468;42.128;24.750;2023-05-10T01:05:00;100158.72;;;10.52;78.56
32875;BME280;40468;42.128;24.750;2023-05-10T01:06:33;100145.97;;;10.44;78.27
32875;BME280;40468;42.128;24.750;2023-05-10T01:08:05;100154.53;;;10.47;78.56
32875;BME280;40468;42.128;24.750;2023-05-10T01:09:39;100151.97;;;10.46;78.31
32875;BME280;40468;42.128;24.750;2023-05-10T01:11:11;100155.50;;;10.45;78.31
32875;BME280;40468;42.128;24.750;2023-05-10T01:12:44;100162.34;;;10.47;78.40
32875;BME280;40468;42.128;24.750;2023-05-10T01:14:18;100156.31;;;10.47;78.46
32875;BME280;40468;42.128;24.750;2023-05-10T01:15:50;100163.19;;;10.48;78.72
32875;BME280;40468;42.128;24.750;2023-05-10T01:17:22;100163.13;;;10.50;78.47
32875;BME280;40468;42.128;24.750;2023-05-10T01:18:55;100158.00;;;10.48;78.36
32875;BME280;40468;42.128;24.750;2023-05-10T01:20:32;100163.19;;;10.48;78.51
32875;BME280;40468;42.128;24.750;2023-05-10T01:22:19;100162.41;;;10.46;78.49
32875;BME280;40468;42.128;24.750;2023-05-10T01:26:37;100168.69;;;10.40;79.02
32875;BME280;40468;42.128;24.750;2023-05-10T01:30:41;100125.72;;;10.07;78.96
32875;BME280;40468;42.128;24.750;2023-05-10T01:32:25;100164.81;;;10.29;79.48
32875;BME280;40468;42.128;24.750;2023-05-10T01:34:02;100163.91;;;10.30;79.65
32875;BME280;40468;42.128;24.750;2023-05-10T01:35:40;100162.03;;;10.33;79.50
32875;BME280;40468;42.128;24.750;2023-05-10T01:37:15;100151.16;;;10.22;79.54
32875;BME280;40468;42.128;24.750;2023-05-10T01:38:51;100091.78;;;9.86;79.69
32875;BME280;40468;42.128;24.750;2023-05-10T01:40:28;100162.28;;;10.27;79.91
32875;BME280;40468;42.128;24.750;2023-05-10T01:42:05;100163.13;;;10.28;79.65
32875;BME280;40468;42.128;24.750;2023-05-10T01:43:44;100157.84;;;10.29;79.74
32875;BME280;40468;42.128;24.750;2023-05-10T01:45:26;100165.72;;;10.28;79.92
32875;BME280;40468;42.128;24.750;2023-05-10T01:47:03;100146.75;;;10.24;80.05
32875;BME280;40468;42.128;24.750;2023-05-10T01:48:41;100101.34;;;9.86;79.87
32875;BME280;40468;42.128;24.750;2023-05-10T01:50:19;100162.28;;;10.27;80.04
32875;BME280;40468;42.128;24.750;2023-05-10T01:51:57;100163.13;;;10.28;80.10
32875;BME280;40468;42.128;24.750;2023-05-10T01:53:32;100162.28;;;10.25;79.87
32875;BME280;40468;42.128;24.750;2023-05-10T01:55:07;100156.31;;;10.23;80.16
32875;BME280;40468;42.128;24.750;2023-05-10T01:56:39;100158.00;;;10.24;79.91
32875;BME280;40468;42.128;24.750;2023-05-10T01:58:15;100158.91;;;10.23;80.32
32875;BME280;40468;42.128;24.750;2023-05-10T01:59:50;100132.66;;;10.06;79.87
32875;BME280;40468;42.128;24.750;2023-05-10T02:01:24;100154.78;;;10.18;79.92
32875;BME280;40468;42.128;24.750;2023-05-10T02:02:57;100162.63;;;10.16;80.03
32875;BME280;40468;42.128;24.750;2023-05-10T02:04:33;100159.22;;;10.14;80.44
32875;BME280;40468;42.128;24.750;2023-05-10T02:06:09;100142.28;;;10.04;80.49
32875;BME280;40468;42.128;24.750;2023-05-10T02:07:42;100162.88;;;10.10;80.60
32875;BME280;40468;42.128;24.750;2023-05-10T02:09:15;100163.81;;;10.08;80.40
32875;BME280;40468;42.128;24.750;2023-05-10T02:10:49;100165.59;;;10.07;80.86
32875;BME280;40468;42.128;24.750;2023-05-10T02:12:23;100169.94;;;10.07;80.69
32875;BME280;40468;42.128;24.750;2023-05-10T02:13:56;100163.22;;;10.01;80.57
32875;BME280;40468;42.128;24.750;2023-05-10T02:15:29;100152.91;;;9.98;80.74
32875;BME280;40468;42.128;24.750;2023-05-10T02:17:02;100164.78;;;10.05;81.17
32875;BME280;40468;42.128;24.750;2023-05-10T02:18:35;100166.53;;;10.05;81.18
32875;BME280;40468;42.128;24.750;2023-05-10T02:20:10;100162.28;;;10.02;81.16
32875;BME280;40468;42.128;24.750;2023-05-10T02:21:43;100170.91;;;10.04;80.88
32875;BME280;40468;42.128;24.750;2023-05-10T02:23:17;100168.34;;;10.02;81.08
32875;BME280;40468;42.128;24.750;2023-05-10T02:24:50;100160.88;;;9.93;81.02
32875;BME280;40468;42.128;24.750;2023-05-10T02:26:24;100172.78;;;10.00;80.95
32875;BME280;40468;42.128;24.750;2023-05-10T02:27:55;100173.13;;;9.91;81.05
32875;BME280;40468;42.128;24.750;2023-05-10T02:29:28;100172.25;;;9.91;80.95
32875;BME280;40468;42.128;24.750;2023-05-10T02:31:02;100168.78;;;9.90;80.99
32875;BME280;40468;42.128;24.750;2023-05-10T02:32:34;100167.84;;;9.93;81.31
32875;BME280;40468;42.128;24.750;2023-05-10T02:34:07;100173.00;;;9.94;81.09
32875;BME280;40468;42.128;24.750;2023-05-10T02:35:41;100174.69;;;9.95;81.07
32875;BME280;40468;42.128;24.750;2023-05-10T02:37:13;100166.97;;;9.94;81.13
32875;BME280;40468;42.128;24.750;2023-05-10T02:38:45;100168.97;;;9.86;81.30
32875;BME280;40468;42.128;24.750;2023-05-10T02:40:19;100152.84;;;9.76;81.59
32875;BME280;40468;42.128;24.750;2023-05-10T02:41:52;100175.06;;;9.85;81.16
32875;BME280;40468;42.128;24.750;2023-05-10T02:43:25;100171.69;;;9.83;81.75
32875;BME280;40468;42.128;24.750;2023-05-10T02:45:01;100165.69;;;9.80;81.64
32875;BME280;40468;42.128;24.750;2023-05-10T02:46:33;100163.09;;;9.80;81.51
32875;BME280;40468;42.128;24.750;2023-05-10T02:48:06;100175.03;;;9.86;81.77
32875;BME280;40468;42.128;24.750;2023-05-10T02:49:37;100158.91;;;9.76;81.65
32875;BME280;40468;42.128;24.750;2023-05-10T02:51:12;100162.97;;;9.84;81.83
32875;BME280;40468;42.128;24.750;2023-05-10T02:52:47;100170.78;;;9.84;81.47
32875;BME280;40468;42.128;24.750;2023-05-10T02:54:31;100171.41;;;9.90;81.47
32875;BME280;40468;42.128;24.750;2023-05-10T02:56:05;100175.75;;;9.90;81.59
32875;BME280;40468;42.128;24.750;2023-05-10T02:57:48;100168.03;;;9.88;81.62
32875;BME280;40468;42.128;24.750;2023-05-10T02:59:22;100168.88;;;9.89;81.44
32875;BME280;40468;42.128;24.750;2023-05-10T03:00:54;100162.94;;;9.85;81.59
32875;BME280;40468;42.128;24.750;2023-05-10T03:02:26;100173.16;;;9.90;81.51
32875;BME280;40468;42.128;24.750;2023-05-10T03:03:58;100162.88;;;9.87;81.35
32875;BME280;40468;42.128;24.750;2023-05-10T03:05:30;100172.31;;;9.89;81.37
32875;BME280;40468;42.128;24.750;2023-05-10T03:07:02;100138.34;;;9.70;81.69
32875;BME280;40468;42.128;24.750;2023-05-10T03:08:34;100176.94;;;9.81;81.41
32875;BME280;40468;42.128;24.750;2023-05-10T03:10:07;100170.91;;;9.80;81.59
32875;BME280;40468;42.128;24.750;2023-05-10T03:11:47;100179.59;;;9.79;81.81
32875;BME280;40468;42.128;24.750;2023-05-10T03:13:27;100160.59;;;9.77;81.53
32875;BME280;40468;42.128;24.750;2023-05-10T03:15:05;100169.97;;;9.82;82.11
32875;BME280;40468;42.128;24.750;2023-05-10T03:16:44;100169.97;;;9.82;82.13
32875;BME280;40468;42.128;24.750;2023-05-10T03:18:21;100165.69;;;9.80;82.09
32875;BME280;40468;42.128;24.750;2023-05-10T03:19:55;100177.00;;;9.79;81.76
32875;BME280;40468;42.128;24.750;2023-05-10T03:21:29;100177.06;;;9.78;82.00
32875;BME280;40468;42.128;24.750;2023-05-10T03:23:07;100179.59;;;9.79;82.00
32875;BME280;40468;42.128;24.750;2023-05-10T03:24:43;100187.41;;;9.79;82.09
32875;BME280;40468;42.128;24.750;2023-05-10T03:26:18;100159.19;;;9.69;82.27
32875;BME280;40468;42.128;24.750;2023-05-10T03:27:52;100188.25;;;9.80;82.13
32875;BME280;40468;42.128;24.750;2023-05-10T03:29:26;100182.09;;;9.83;81.92
32875;BME280;40468;42.128;24.750;2023-05-10T03:30:58;100165.91;;;9.74;81.93
32875;BME280;40468;42.128;24.750;2023-05-10T03:32:31;100178.66;;;9.82;81.75
32875;BME280;40468;42.128;24.750;2023-05-10T03:34:04;100187.41;;;9.79;81.95
32875;BME280;40468;42.128;24.750;2023-05-10T03:35:35;100182.25;;;9.78;82.06
32875;BME280;40468;42.128;24.750;2023-05-10T03:37:07;100194.19;;;9.84;82.37
32875;BME280;40468;42.128;24.750;2023-05-10T03:38:40;100189.06;;;9.82;81.88
32875;BME280;40468;42.128;24.750;2023-05-10T03:40:12;100190.56;;;9.88;82.18
32875;BME280;40468;42.128;24.750;2023-05-10T03:41:44;100188.88;;;9.87;81.82
32875;BME280;40468;42.128;24.750;2023-05-10T03:43:16;100193.97;;;9.90;82.27
32875;BME280;40468;42.128;24.750;2023-05-10T03:44:47;100197.41;;;9.90;82.04
32875;BME280;40468;42.128;24.750;2023-05-10T03:46:19;100193.22;;;9.86;81.88
32875;BME280;40468;42.128;24.750;2023-05-10T03:47:51;100190.69;;;9.85;81.92
32875;BME280;40468;42.128;24.750;2023-05-10T03:49:24;100192.63;;;9.79;81.94
32875;BME280;40468;42.128;24.750;2023-05-10T03:50:56;100195.09;;;9.83;82.23
32875;BME280;40468;42.128;24.750;2023-05-10T03:52:27;100200.19;;;9.86;82.25
32875;BME280;40468;42.128;24.750;2023-05-10T03:54:01;100168.72;;;9.68;82.33
32875;BME280;40468;42.128;24.750;2023-05-10T03:55:31;100184.03;;;9.76;82.46
32875;BME280;40468;42.128;24.750;2023-05-10T03:57:04;100201.84;;;9.88;82.61
32875;BME280;40468;42.128;24.750;2023-05-10T03:58:36;100202.72;;;9.87;82.20
32875;BME280;40468;42.128;24.750;2023-05-10T04:00:08;100207.88;;;9.89;82.29
32875;BME280;40468;42.128;24.750;2023-05-10T04:01:40;100177.13;;;9.76;82.40
32875;BME280;40468;42.128;24.750;2023-05-10T04:03:12;100202.56;;;9.92;82.41
32875;BME280;40468;42.128;24.750;2023-05-10T04:04:44;100206.81;;;9.94;82.53
32875;BME280;40468;42.128;24.750;2023-05-10T04:06:16;100210.28;;;9.95;82.55
32875;BME280;40468;42.128;24.750;2023-05-10T04:07:47;100183.22;;;9.75;82.50
32875;BME280;40468;42.128;24.750;2023-05-10T04:09:21;100210.38;;;9.92;82.40
32875;BME280;40468;42.128;24.750;2023-05-10T04:10:53;100217.97;;;9.98;82.79
32875;BME280;40468;42.128;24.750;2023-05-10T04:12:24;100211.06;;;9.97;82.82
32875;BME280;40468;42.128;24.750;2023-05-10T04:13:56;100215.25;;;10.01;82.57
32875;BME280;40468;42.128;24.750;2023-05-10T04:15:28;100209.34;;;9.96;82.36
32875;BME280;40468;42.128;24.750;2023-05-10T04:17:00;100221.28;;;10.01;82.20
32875;BME280;40468;42.128;24.750;2023-05-10T04:18:32;100207.56;;;9.98;82.36
32875;BME280;40468;42.128;24.750;2023-05-10T04:20:05;100220.25;;;10.06;81.90
32875;BME280;40468;42.128;24.750;2023-05-10T04:21:37;100213.59;;;9.98;82.14
32875;BME280;40468;42.128;24.750;2023-05-10T04:23:09;100209.47;;;9.93;82.19
32875;BME280;40468;42.128;24.750;2023-05-10T04:24:41;100224.81;;;10.00;81.78
32875;BME280;40468;42.128;24.750;2023-05-10T04:26:13;100218.06;;;9.95;81.40
32875;BME280;40468;42.128;24.750;2023-05-10T04:27:45;100217.34;;;9.91;81.19
32875;BME280;40468;42.128;24.750;2023-05-10T04:29:17;100224.13;;;9.95;81.11
32875;BME280;40468;42.128;24.750;2023-05-10T04:30:49;100219.00;;;9.94;81.16
32875;BME280;40468;42.128;24.750;2023-05-10T04:32:20;100190.28;;;9.72;81.42
32875;BME280;40468;42.128;24.750;2023-05-10T04:33:51;100226.72;;;9.95;81.44
32875;BME280;40468;42.128;24.750;2023-05-10T04:35:23;100229.28;;;9.97;81.61
32875;BME280;40468;42.128;24.750;2023-05-10T04:36:55;100213.94;;;9.89;81.46
32875;BME280;40468;42.128;24.750;2023-05-10T04:38:27;100224.81;;;10.00;81.48
32875;BME280;40468;42.128;24.750;2023-05-10T04:40:00;100228.88;;;10.08;81.88
32875;BME280;40468;42.128;24.750;2023-05-10T04:41:33;100222.00;;;10.07;81.58
32875;BME280;40468;42.128;24.750;2023-05-10T04:43:04;100233.84;;;10.14;81.51
32875;BME280;40468;42.128;24.750;2023-05-10T04:44:36;100225.94;;;10.17;81.39
32875;BME280;40468;42.128;24.750;2023-05-10T04:46:08;100228.44;;;10.20;81.62
32875;BME280;40468;42.128;24.750;2023-05-10T04:47:40;100224.03;;;10.22;81.31
32875;BME280;40468;42.128;24.750;2023-05-10T04:49:11;100221.41;;;10.22;81.26
32875;BME280;40468;42.128;24.750;2023-05-10T04:50:44;100223.19;;;10.21;81.06
32875;BME280;40468;42.128;24.750;2023-05-10T04:52:15;100227.44;;;10.24;80.97
32875;BME280;40468;42.128;24.750;2023-05-10T04:53:48;100225.59;;;10.26;81.01
32875;BME280;40468;42.128;24.750;2023-05-10T04:55:22;100231.72;;;10.27;80.48
32875;BME280;40468;42.128;24.750;2023-05-10T04:56:55;100216.28;;;10.20;80.17
32875;BME280;40468;42.128;24.750;2023-05-10T04:58:27;100217.97;;;10.21;79.85
32875;BME280;40468;42.128;24.750;2023-05-10T04:59:59;100229.13;;;10.25;79.39
32875;BME280;40468;42.128;24.750;2023-05-10T05:01:32;100232.56;;;10.25;79.30
32875;BME280;40468;42.128;24.750;2023-05-10T05:03:04;100200.25;;;10.08;79.16
32875;BME280;40468;42.128;24.750;2023-05-10T05:04:36;100229.88;;;10.29;79.18
32875;BME280;40468;42.128;24.750;2023-05-10T05:06:08;100234.19;;;10.30;79.35
32875;BME280;40468;42.128;24.750;2023-05-10T05:07:40;100229.84;;;10.30;79.37
32875;BME280;40468;42.128;24.750;2023-05-10T05:09:12;100234.19;;;10.30;78.79
32875;BME280;40468;42.128;24.750;2023-05-10T05:10:46;100233.41;;;10.26;78.62
32875;BME280;40468;42.128;24.750;2023-05-10T05:12:20;100237.88;;;10.22;78.86
32875;BME280;40468;42.128;24.750;2023-05-10T05:13:52;100175.97;;;9.84;78.85
32875;BME280;40468;42.128;24.750;2023-05-10T05:15:24;100236.91;;;10.25;78.67
32875;BME280;40468;42.128;24.750;2023-05-10T05:16:57;100236.84;;;10.28;78.48
32875;BME280;40468;42.128;24.750;2023-05-10T05:18:29;100228.28;;;10.24;78.33
32875;BME280;40468;42.128;24.750;2023-05-10T05:20:01;100235.03;;;10.30;78.22
32875;BME280;40468;42.128;24.750;2023-05-10T05:21:33;100217.13;;;10.21;78.28
32875;BME280;40468;42.128;24.750;2023-05-10T05:23:06;100237.53;;;10.33;78.11
32875;BME280;40468;42.128;24.750;2023-05-10T05:24:38;100236.59;;;10.34;78.15
32875;BME280;40468;42.128;24.750;2023-05-10T05:26:11;100213.59;;;10.22;78.21
32875;BME280;40468;42.128;24.750;2023-05-10T05:27:43;100232.25;;;10.35;78.06
32875;BME280;40468;42.128;24.750;2023-05-10T05:29:16;100235.66;;;10.37;77.87
32875;BME280;40468;42.128;24.750;2023-05-10T05:30:47;100233.16;;;10.34;77.54
32875;BME280;40468;42.128;24.750;2023-05-10T05:32:19;100209.00;;;10.30;77.33
32875;BME280;40468;42.128;24.750;2023-05-10T05:33:51;100214.78;;;10.38;77.68
32875;BME280;40468;42.128;24.750;2023-05-10T05:35:23;100213.13;;;10.36;77.13
32875;BME280;40468;42.128;24.750;2023-05-10T05:36:55;100212.91;;;10.42;77.30
32875;BME280;40468;42.128;24.750;2023-05-10T05:38:27;100225.63;;;10.50;77.14
32875;BME280;40468;42.128;24.750;2023-05-10T05:39:59;100214.44;;;10.47;77.02
32875;BME280;40468;42.128;24.750;2023-05-10T05:41:33;100221.16;;;10.53;77.21
32875;BME280;40468;42.128;24.750;2023-05-10T05:43:05;100219.28;;;10.57;76.88
32875;BME280;40468;42.128;24.750;2023-05-10T05:44:38;100232.19;;;10.60;76.87
32875;BME280;40468;42.128;24.750;2023-05-10T05:46:10;100225.34;;;10.57;76.93
32875;BME280;40468;42.128;24.750;2023-05-10T05:47:42;100229.47;;;10.63;76.88
32875;BME280;40468;42.128;24.750;2023-05-10T05:49:14;100201.41;;;10.47;77.05
32875;BME280;40468;42.128;24.750;2023-05-10T05:50:46;100221.81;;;10.58;76.79
32875;BME280;40468;42.128;24.750;2023-05-10T05:52:18;100229.22;;;10.69;76.71
32875;BME280;40468;42.128;24.750;2023-05-10T05:53:51;100243.88;;;10.72;76.69
32875;BME280;40468;42.128;24.750;2023-05-10T05:55:23;100242.13;;;10.72;76.98
32875;BME280;40468;42.128;24.750;2023-05-10T05:56:58;100227.66;;;10.65;76.62
32875;BME280;40468;42.128;24.750;2023-05-10T05:58:30;100247.22;;;10.75;76.67
32875;BME280;40468;42.128;24.750;2023-05-10T06:00:03;100249.78;;;10.77;76.70
32875;BME280;40468;42.128;24.750;2023-05-10T06:01:36;100248.06;;;10.76;76.95
32875;BME280;40468;42.128;24.750;2023-05-10T06:03:08;100229.34;;;10.66;76.46
32875;BME280;40468;42.128;24.750;2023-05-10T06:04:40;100244.50;;;10.78;76.88
32875;BME280;40468;42.128;24.750;2023-05-10T06:06:12;100231.63;;;10.74;76.38
32875;BME280;40468;42.128;24.750;2023-05-10T06:07:48;100237.47;;;10.80;76.59
32875;BME280;40468;42.128;24.750;2023-05-10T06:09:20;100238.25;;;10.82;76.40
32875;BME280;40468;42.128;24.750;2023-05-10T06:10:54;100237.22;;;10.86;76.38
32875;BME280;40468;42.128;24.750;2023-05-10T06:12:28;100243.16;;;10.90;76.19
32875;BME280;40468;42.128;24.750;2023-05-10T06:14:00;100241.47;;;10.89;76.25
32875;BME280;40468;42.128;24.750;2023-05-10T06:15:32;100239.75;;;10.88;75.76
32875;BME280;40468;42.128;24.750;2023-05-10T06:17:05;100238.78;;;10.90;76.08
32875;BME280;40468;42.128;24.750;2023-05-10T06:18:37;100238.75;;;10.92;76.23
32875;BME280;40468;42.128;24.750;2023-05-10T06:20:10;100234.50;;;10.89;76.07
32875;BME280;40468;42.128;24.750;2023-05-10T06:21:42;100237.91;;;10.91;76.11
32875;BME280;40468;42.128;24.750;2023-05-10T06:23:14;100239.59;;;10.92;76.07
32875;BME280;40468;42.128;24.750;2023-05-10T06:24:46;100242.06;;;10.96;76.20
32875;BME280;40468;42.128;24.750;2023-05-10T06:26:18;100249.69;;;11.00;75.94
32875;BME280;40468;42.128;24.750;2023-05-10T06:27:52;100251.28;;;11.04;76.25
32875;BME280;40468;42.128;24.750;2023-05-10T06:29:28;100253.66;;;11.10;75.84
32875;BME280;40468;42.128;24.750;2023-05-10T06:31:00;100257.06;;;11.12;75.56
32875;BME280;40468;42.128;24.750;2023-05-10T06:32:32;100253.34;;;11.18;75.35
32875;BME280;40468;42.128;24.750;2023-05-10T06:34:04;100260.13;;;11.22;75.21
32875;BME280;40468;42.128;24.750;2023-05-10T06:35:38;100263.56;;;11.23;74.90
32875;BME280;40468;42.128;24.750;2023-05-10T06:37:10;100257.53;;;11.22;74.55
32875;BME280;40468;42.128;24.750;2023-05-10T06:38:42;100265.94;;;11.29;74.69
32875;BME280;40468;42.128;24.750;2023-05-10T06:40:14;100260.59;;;11.32;74.03
32875;BME280;40468;42.128;24.750;2023-05-10T06:41:46;100253.63;;;11.32;74.14
32875;BME280;40468;42.128;24.750;2023-05-10T06:43:20;100263.88;;;11.37;73.68
32875;BME280;40468;42.128;24.750;2023-05-10T06:44:52;100258.66;;;11.37;73.61
32875;BME280;40468;42.128;24.750;2023-05-10T06:46:24;100255.13;;;11.38;73.67
32875;BME280;40468;42.128;24.750;2023-05-10T06:47:56;100257.59;;;11.41;73.54
32875;BME280;40468;42.128;24.750;2023-05-10T06:49:29;100267.16;;;11.42;73.40
32875;BME280;40468;42.128;24.750;2023-05-10T06:51:01;100257.72;;;11.38;73.18
32875;BME280;40468;42.128;24.750;2023-05-10T06:52:33;100273.13;;;11.44;73.02
32875;BME280;40468;42.128;24.750;2023-05-10T06:54:05;100256.50;;;11.47;72.44
32875;BME280;40468;42.128;24.750;2023-05-10T06:55:37;100255.75;;;11.45;72.55
32875;BME280;40468;42.128;24.750;2023-05-10T06:57:09;100243.84;;;11.37;72.23
32875;BME280;40468;42.128;24.750;2023-05-10T06:58:43;100248.69;;;11.47;72.50
32875;BME280;40468;42.128;24.750;2023-05-10T07:00:18;100245.81;;;11.53;72.32
32875;BME280;40468;42.128;24.750;2023-05-10T07:01:50;100253.38;;;11.59;72.33
32875;BME280;40468;42.128;24.750;2023-05-10T07:03:22;100245.38;;;11.64;72.12
32875;BME280;40468;42.128;24.750;2023-05-10T07:04:55;100254.84;;;11.66;71.83
32875;BME280;40468;42.128;24.750;2023-05-10T07:06:27;100258.16;;;11.70;72.17
32875;BME280;40468;42.128;24.750;2023-05-10T07:07:59;100251.03;;;11.73;71.83
32875;BME280;40468;42.128;24.750;2023-05-10T07:09:31;100251.88;;;11.74;71.77
32875;BME280;40468;42.128;24.750;2023-05-10T07:11:05;100250.91;;;11.76;71.11
32875;BME280;40468;42.128;24.750;2023-05-10T07:12:37;100251.63;;;11.80;71.53
32875;BME280;40468;42.128;24.750;2023-05-10T07:14:11;100254.09;;;11.83;71.20
32875;BME280;40468;42.128;24.750;2023-05-10T07:15:43;100252.50;;;11.80;70.88
32875;BME280;40468;42.128;24.750;2023-05-10T07:17:15;100258.41;;;11.84;71.36
32875;BME280;40468;42.128;24.750;2023-05-10T07:18:47;100248.72;;;11.88;71.02
32875;BME280;40468;42.128;24.750;2023-05-10T07:20:20;100244.28;;;11.90;70.54
32875;BME280;40468;42.128;24.750;2023-05-10T07:21:52;100250.41;;;11.89;70.55
32875;BME280;40468;42.128;24.750;2023-05-10T07:23:24;100202.72;;;11.65;70.14
32875;BME280;40468;42.128;24.750;2023-05-10T07:24:57;100257.78;;;11.99;70.23
32875;BME280;40468;42.128;24.750;2023-05-10T07:26:29;100264.78;;;11.99;69.38
32875;BME280;40468;42.128;24.750;2023-05-10T07:28:01;100265.63;;;11.99;69.47
32875;BME280;40468;42.128;24.750;2023-05-10T07:29:34;100262.03;;;12.02;69.66
32875;BME280;40468;42.128;24.750;2023-05-10T07:31:06;100254.13;;;12.03;69.38
32875;BME280;40468;42.128;24.750;2023-05-10T07:32:39;100260.13;;;12.05;69.62
32875;BME280;40468;42.128;24.750;2023-05-10T07:34:12;100258.44;;;12.04;69.46
32875;BME280;40468;42.128;24.750;2023-05-10T07:35:44;100261.22;;;12.00;69.45
32875;BME280;40468;42.128;24.750;2023-05-10T07:37:16;100269.78;;;12.03;69.61
32875;BME280;40468;42.128;24.750;2023-05-10T07:38:49;100264.56;;;12.03;69.25
32875;BME280;40468;42.128;24.750;2023-05-10T07:40:21;100261.19;;;12.01;69.47
32875;BME280;40468;42.128;24.750;2023-05-10T07:41:53;100257.66;;;12.02;69.47
32875;BME280;40468;42.128;24.750;2023-05-10T07:43:26;100252.50;;;12.01;69.00
32875;BME280;40468;42.128;24.750;2023-05-10T07:44:59;100265.91;;;12.12;69.17
32875;BME280;40468;42.128;24.750;2023-05-10T07:46:31;100260.50;;;12.17;69.06
32875;BME280;40468;42.128;24.750;2023-05-10T07:48:06;100277.56;;;12.24;69.07
32875;BME280;40468;42.128;24.750;2023-05-10T07:49:47;100273.16;;;12.26;68.90
32875;BME280;40468;42.128;24.750;2023-05-10T07:51:20;100283.41;;;12.31;67.93
32875;BME280;40468;42.128;24.750;2023-05-10T07:52:52;100270.25;;;12.32;67.71
32875;BME280;40468;42.128;24.750;2023-05-10T07:54:25;100274.50;;;12.35;67.54
32875;BME280;40468;42.128;24.750;2023-05-10T07:55:58;100276.97;;;12.38;67.59
32875;BME280;40468;42.128;24.750;2023-05-10T07:57:30;100270.91;;;12.37;67.13
32875;BME280;40468;42.128;24.750;2023-05-10T07:59:03;100269.69;;;12.44;67.08
32875;BME280;40468;42.128;24.750;2023-05-10T08:00:38;100281.63;;;12.50;66.39
32875;BME280;40468;42.128;24.750;2023-05-10T08:02:11;100287.78;;;12.49;66.12
32875;BME280;40468;42.128;24.750;2023-05-10T08:03:43;100281.44;;;12.55;66.08
32875;BME280;40468;42.128;24.750;2023-05-10T08:05:16;100280.50;;;12.56;65.80
32875;BME280;40468;42.128;24.750;2023-05-10T08:06:48;100292.59;;;12.58;65.64